Time;durP1;ratioP1;P1;durP2;ratioP2;P2;SDS_P1;SDS_P2;PMS_P1;PMS_P2;Temp;Humidity;BMP_temperature;BMP_pressure;BME280_temperature;BME280_humidity;BME280_pressure;Samples;Min_cycle;Max_cycle;Signal;HPM_P1;HPM_P2
2023/09/25 00:01:12;;;;;;;4.00;3.35;;;13.90;99.90;;;;;;5043619;28;20045;-75
2023/09/25 00:03:38;;;;;;;6.07;3.50;;;13.90;99.90;;;;;;5035844;28;20040;-76
2023/09/25 00:06:04;;;;;;;4.68;3.53;;;13.90;99.90;;;;;;5035207;28;20049;-75
2023/09/25 00:08:30;;;;;;;6.03;3.80;;;13.90;99.90;;;;;;5042151;28;20151;-75
2023/09/25 00:10:56;;;;;;;4.28;3.58;;;13.80;99.90;;;;;;5041317;28;20057;-76
2023/09/25 00:13:23;;;;;;;5.97;3.70;;;13.80;99.90;;;;;;5034137;28;20458;-75
2023/09/25 00:15:49;;;;;;;4.88;3.15;;;13.80;99.90;;;;;;5058321;28;20107;-76
2023/09/25 00:18:15;;;;;;;6.38;3.53;;;13.80;99.90;;;;;;5046976;28;20048;-74
2023/09/25 00:20:41;;;;;;;4.25;3.20;;;13.80;99.90;;;;;;5063905;28;20045;-74
2023/09/25 00:23:07;;;;;;;7.05;3.28;;;13.80;99.90;;;;;;5041324;28;20088;-74
2023/09/25 00:25:33;;;;;;;4.28;3.20;;;13.80;99.90;;;;;;5045264;28;20053;-74
2023/09/25 00:27:59;;;;;;;5.85;3.42;;;13.80;99.90;;;;;;5042548;28;20040;-75
2023/09/25 00:30:26;;;;;;;7.50;3.38;;;13.80;99.90;;;;;;5035894;28;20044;-74
2023/09/25 00:32:51;;;;;;;4.30;3.38;;;13.80;99.90;;;;;;5037583;28;20080;-74
2023/09/25 00:35:19;;;;;;;3.83;3.38;;;13.80;99.90;;;;;;5041365;28;20072;-74
2023/09/25 00:37:45;;;;;;;5.75;3.45;;;13.80;99.90;;;;;;5041678;28;20051;-75
2023/09/25 00:40:14;;;;;;;5.78;3.40;;;13.80;99.90;;;;;;5064784;28;20482;-74
2023/09/25 00:42:41;;;;;;;6.47;3.90;;;13.80;99.90;;;;;;5053866;28;20043;-74
2023/09/25 00:45:08;;;;;;;3.88;3.10;;;13.80;99.90;;;;;;5040604;28;20045;-74
2023/09/25 00:47:34;;;;;;;4.10;3.03;;;13.80;99.90;;;;;;5035659;28;20052;-74
2023/09/25 00:50:00;;;;;;;4.70;3.38;;;13.80;99.90;;;;;;5043096;28;20053;-74
2023/09/25 00:52:26;;;;;;;5.22;3.20;;;13.80;99.90;;;;;;5043069;28;20048;-74
2023/09/25 00:54:52;;;;;;;5.68;3.50;;;13.80;99.90;;;;;;5055327;28;20635;-74
2023/09/25 00:57:18;;;;;;;5.10;3.47;;;13.80;99.90;;;;;;5058290;28;20083;-74
2023/09/25 00:59:44;;;;;;;4.80;3.53;;;13.80;99.90;;;;;;5044475;28;20565;-74
2023/09/25 01:02:10;;;;;;;4.30;3.15;;;13.80;99.90;;;;;;5040621;28;20049;-74
2023/09/25 01:04:36;;;;;;;4.03;3.27;;;13.80;99.90;;;;;;5041795;28;20041;-74
2023/09/25 01:07:03;;;;;;;4.20;3.38;;;13.70;99.90;;;;;;5044787;28;20389;-74
2023/09/25 01:09:28;;;;;;;4.68;3.47;;;13.80;99.90;;;;;;5034491;28;20492;-73
2023/09/25 01:11:54;;;;;;;6.00;3.20;;;13.70;99.90;;;;;;5033259;28;20041;-74
2023/09/25 01:14:20;;;;;;;4.53;3.30;;;13.70;99.90;;;;;;5034853;28;20410;-74
2023/09/25 01:16:45;;;;;;;7.22;3.53;;;13.70;99.90;;;;;;5042366;28;20056;-74
2023/09/25 01:19:13;;;;;;;5.30;3.05;;;13.70;99.90;;;;;;5034651;28;20041;-74
2023/09/25 01:21:46;;;;;;;5.70;3.42;;;13.60;99.90;;;;;;5061773;28;20106;-74
2023/09/25 01:24:12;;;;;;;5.20;3.85;;;13.60;99.90;;;;;;5038204;28;20037;-74
2023/09/25 01:26:38;;;;;;;4.88;3.35;;;13.60;99.90;;;;;;5037124;28;20043;-74
2023/09/25 01:29:03;;;;;;;5.35;3.65;;;13.50;99.90;;;;;;5037317;28;20052;-74
2023/09/25 01:31:29;;;;;;;7.07;3.60;;;13.50;99.90;;;;;;5044745;28;20060;-74
2023/09/25 01:33:55;;;;;;;4.88;3.42;;;13.50;99.90;;;;;;5059608;28;20071;-74
2023/09/25 01:36:20;;;;;;;6.07;3.20;;;13.50;99.90;;;;;;5043648;28;20037;-74
2023/09/25 01:38:47;;;;;;;4.00;3.33;;;13.40;99.90;;;;;;5058953;28;20049;-74
2023/09/25 01:41:14;;;;;;;5.75;3.70;;;13.40;99.90;;;;;;5045440;28;20103;-74
2023/09/25 01:43:40;;;;;;;;;;;13.40;99.90;;;;;;5038730;28;20083;-74
2023/09/25 01:46:06;;;;;;;5.07;3.42;;;13.30;99.90;;;;;;5033771;28;19986;-75
2023/09/25 01:48:32;;;;;;;4.40;3.55;;;13.30;99.90;;;;;;5059054;28;20123;-74
2023/09/25 01:50:57;;;;;;;7.07;3.65;;;13.30;99.90;;;;;;5047247;28;20449;-75
2023/09/25 01:53:23;;;;;;;4.35;3.70;;;13.20;99.90;;;;;;5043643;28;20159;-74
2023/09/25 01:55:49;;;;;;;9.38;3.95;;;13.20;99.90;;;;;;5060862;28;20056;-74
2023/09/25 01:58:15;;;;;;;4.68;3.30;;;13.20;99.90;;;;;;5046767;28;20128;-75
2023/09/25 02:00:41;;;;;;;5.40;3.70;;;13.20;99.90;;;;;;5046758;28;20449;-74
2023/09/25 02:03:06;;;;;;;5.38;3.55;;;13.20;99.90;;;;;;5050151;28;20032;-74
2023/09/25 02:05:32;;;;;;;5.60;3.90;;;13.10;99.90;;;;;;5050376;28;20539;-74
2023/09/25 02:07:58;;;;;;;5.95;3.90;;;13.10;99.90;;;;;;5040016;28;20053;-74
2023/09/25 02:10:24;;;;;;;7.10;3.65;;;13.10;99.90;;;;;;5037157;28;20049;-74
2023/09/25 02:12:50;;;;;;;4.65;3.20;;;13.10;99.90;;;;;;5066129;28;20057;-73
2023/09/25 02:15:15;;;;;;;4.90;3.38;;;13.10;99.90;;;;;;5045218;28;20253;-74
2023/09/25 02:17:42;;;;;;;5.45;3.53;;;13.10;99.90;;;;;;5040536;28;20041;-74
2023/09/25 02:20:16;;;;;;;4.15;3.10;;;13.00;99.90;;;;;;5039022;28;20045;-74
2023/09/25 02:22:43;;;;;;;5.38;3.70;;;13.00;99.90;;;;;;5042152;28;20048;-74
2023/09/25 02:25:09;;;;;;;5.45;3.50;;;13.00;99.90;;;;;;5062700;28;20047;-74
2023/09/25 02:27:35;;;;;;;5.88;3.50;;;13.00;99.90;;;;;;5045232;28;20040;-74
2023/09/25 02:30:00;;;;;;;4.32;3.20;;;12.90;99.90;;;;;;5048930;28;20126;-74
2023/09/25 02:32:26;;;;;;;4.05;3.47;;;12.90;99.90;;;;;;5040750;28;20126;-74
2023/09/25 02:34:52;;;;;;;6.88;3.90;;;12.90;99.90;;;;;;5037773;28;20052;-74
2023/09/25 02:37:17;;;;;;;5.20;3.47;;;12.90;99.90;;;;;;5062523;28;20052;-74
2023/09/25 02:39:43;;;;;;;4.82;3.50;;;12.90;99.90;;;;;;5043703;28;20036;-74
2023/09/25 02:42:09;;;;;;;4.68;3.55;;;12.80;99.90;;;;;;5043529;28;20500;-74
2023/09/25 02:44:35;;;;;;;6.82;3.78;;;12.80;99.90;;;;;;5047163;28;20171;-74
2023/09/25 02:47:00;;;;;;;4.22;3.53;;;12.80;99.90;;;;;;5043019;28;20488;-74
2023/09/25 02:49:26;;;;;;;5.10;3.72;;;12.80;99.90;;;;;;5066715;28;20036;-74
2023/09/25 02:51:51;;;;;;;6.78;4.30;;;12.80;99.90;;;;;;5041474;28;20480;-74
2023/09/25 02:54:17;;;;;;;5.13;3.33;;;12.80;99.90;;;;;;5040330;28;20125;-74
2023/09/25 02:56:43;;;;;;;5.10;3.90;;;12.80;99.90;;;;;;5038112;28;20045;-74
2023/09/25 02:59:09;;;;;;;5.28;4.00;;;12.80;99.90;;;;;;5062151;28;20040;-74
2023/09/25 03:01:34;;;;;;;4.35;3.90;;;12.80;99.90;;;;;;5059541;28;20496;-74
2023/09/25 03:04:00;;;;;;;5.28;3.85;;;12.80;99.90;;;;;;5046739;28;20091;-74
2023/09/25 03:06:26;;;;;;;8.18;4.22;;;12.80;99.90;;;;;;5045411;28;20044;-74
2023/09/25 03:08:51;;;;;;;5.45;4.18;;;12.80;99.90;;;;;;5042084;28;20048;-74
2023/09/25 03:11:17;;;;;;;4.47;4.07;;;12.80;99.90;;;;;;5060687;28;20048;-74
2023/09/25 03:13:43;;;;;;;6.32;4.30;;;12.80;99.90;;;;;;5062388;28;20043;-75
2023/09/25 03:16:13;;;;;;;7.93;4.25;;;12.80;99.90;;;;;;5047811;28;20048;-74
2023/09/25 03:18:39;;;;;;;5.50;4.15;;;12.90;99.90;;;;;;5048288;28;20044;-74
2023/09/25 03:21:13;;;;;;;5.32;3.90;;;12.80;99.90;;;;;;5056010;28;20028;-74
2023/09/25 03:23:40;;;;;;;4.28;3.70;;;12.80;99.90;;;;;;5043588;28;20503;-74
2023/09/25 03:26:20;;;;;;;6.07;3.92;;;12.80;99.90;;;;;;5048035;28;20042;-74
2023/09/25 03:28:48;;;;;;;4.63;3.80;;;12.80;99.90;;;;;;5054064;28;20116;-74
2023/09/25 03:31:13;;;;;;;5.55;4.03;;;12.80;99.90;;;;;;5057838;28;20048;-74
2023/09/25 03:33:40;;;;;;;4.95;3.83;;;12.90;99.90;;;;;;5040168;28;20040;-74
2023/09/25 03:36:07;;;;;;;5.03;3.92;;;12.80;99.90;;;;;;5044424;28;20495;-74
2023/09/25 03:38:36;;;;;;;7.10;4.13;;;12.80;99.90;;;;;;5046756;28;20055;-74
2023/09/25 03:41:01;;;;;;;4.78;3.90;;;12.80;99.90;;;;;;5037315;28;20048;-74
2023/09/25 03:43:27;;;;;;;5.85;3.83;;;12.80;99.90;;;;;;5054677;28;20129;-74
2023/09/25 03:45:53;;;;;;;4.75;3.90;;;12.80;99.90;;;;;;5045255;28;20476;-74
2023/09/25 03:48:18;;;;;;;5.18;4.20;;;12.80;99.90;;;;;;5035748;28;20049;-74
2023/09/25 03:50:44;;;;;;;5.35;3.65;;;12.80;99.90;;;;;;5051713;28;20632;-74
2023/09/25 03:53:11;;;;;;;5.18;4.20;;;12.80;99.90;;;;;;5048781;28;20059;-74
2023/09/25 03:55:38;;;;;;;6.43;4.00;;;12.80;99.90;;;;;;5040924;28;20434;-74
2023/09/25 03:58:04;;;;;;;5.95;4.18;;;12.80;99.90;;;;;;5054359;28;20096;-74
2023/09/25 04:00:29;;;;;;;4.13;3.63;;;12.80;99.90;;;;;;5042012;28;20449;-74
2023/09/25 04:02:55;;;;;;;4.47;4.00;;;12.80;99.90;;;;;;5048550;28;20053;-73
2023/09/25 04:05:21;;;;;;;8.10;4.13;;;12.80;99.90;;;;;;5048014;28;20457;-73
2023/09/25 04:07:46;;;;;;;5.95;4.20;;;12.80;99.90;;;;;;5044335;28;20167;-74
2023/09/25 04:10:12;;;;;;;6.20;4.18;;;12.80;99.90;;;;;;5044007;28;20063;-74
2023/09/25 04:12:38;;;;;;;6.30;4.18;;;12.80;99.90;;;;;;5056136;28;20037;-74
2023/09/25 04:15:12;;;;;;;6.72;4.30;;;12.80;99.90;;;;;;5039190;28;20040;-74
2023/09/25 04:17:39;;;;;;;5.85;4.30;;;12.80;99.90;;;;;;5035598;28;20052;-74
2023/09/25 04:20:15;;;;;;;5.70;4.60;;;12.80;99.90;;;;;;5049525;28;20044;-74
2023/09/25 04:22:41;;;;;;;5.22;4.20;;;12.80;99.90;;;;;;5023947;28;20061;-74
2023/09/25 04:25:10;;;;;;;5.85;4.07;;;12.80;99.90;;;;;;5064055;28;20089;-74
2023/09/25 04:27:36;;;;;;;4.85;4.15;;;12.80;99.90;;;;;;5038651;28;20064;-74
2023/09/25 04:30:08;;;;;;;4.80;4.28;;;12.80;99.90;;;;;;5037027;28;20052;-74
2023/09/25 04:32:34;;;;;;;4.90;4.40;;;12.80;99.90;;;;;;5038110;28;20044;-75
2023/09/25 04:35:00;;;;;;;6.28;4.40;;;12.80;99.90;;;;;;5039589;28;20127;-74
2023/09/25 04:37:25;;;;;;;6.03;4.88;;;12.80;99.90;;;;;;5043017;28;20147;-74
2023/09/25 04:39:51;;;;;;;6.47;5.00;;;12.70;99.90;;;;;;5035916;28;20443;-73
2023/09/25 04:42:17;;;;;;;5.97;4.43;;;12.70;99.90;;;;;;5057629;28;20483;-72
2023/09/25 04:44:43;;;;;;;5.20;4.35;;;12.70;99.90;;;;;;5035218;28;20514;-72
2023/09/25 04:47:10;;;;;;;6.53;4.57;;;12.70;99.90;;;;;;5045321;28;20036;-73
2023/09/25 04:49:35;;;;;;;5.25;4.30;;;12.70;99.90;;;;;;5044426;28;20041;-72
2023/09/25 04:52:01;;;;;;;6.15;4.70;;;12.70;99.90;;;;;;5042199;28;20044;-73
2023/09/25 04:54:27;;;;;;;5.18;4.35;;;12.70;99.90;;;;;;5045187;28;20051;-72
2023/09/25 04:56:52;;;;;;;6.80;4.53;;;12.70;99.90;;;;;;5031871;28;20045;-72
2023/09/25 04:59:18;;;;;;;6.25;4.70;;;12.70;99.90;;;;;;5038928;28;20055;-73
2023/09/25 05:01:44;;;;;;;5.15;4.18;;;12.70;99.90;;;;;;5038553;28;20048;-73
2023/09/25 05:04:10;;;;;;;6.28;4.53;;;12.70;99.90;;;;;;5043382;28;20436;-73
2023/09/25 05:06:35;;;;;;;7.20;4.55;;;12.70;99.90;;;;;;5033449;28;20903;-73
2023/09/25 05:09:01;;;;;;;6.43;4.75;;;12.70;99.90;;;;;;5039687;28;20074;-72
2023/09/25 05:11:26;;;;;;;5.38;4.25;;;12.70;99.90;;;;;;5035943;28;20068;-73
2023/09/25 05:13:52;;;;;;;5.68;4.25;;;12.70;99.90;;;;;;5064656;28;20089;-73
2023/09/25 05:16:18;;;;;;;4.43;3.97;;;12.70;99.90;;;;;;5045371;28;20381;-73
2023/09/25 05:18:44;;;;;;;4.93;4.40;;;12.60;99.90;;;;;;5047701;28;20047;-73
2023/09/25 05:21:09;;;;;;;7.65;4.80;;;12.60;99.90;;;;;;5039393;28;20063;-72
2023/09/25 05:23:35;;;;;;;5.85;4.35;;;12.70;99.90;;;;;;5062016;28;20609;-73
2023/09/25 05:26:01;;;;;;;5.78;4.07;;;12.60;99.90;;;;;;5033725;28;20071;-72
2023/09/25 05:28:26;;;;;;;5.18;4.07;;;12.60;99.90;;;;;;5038004;28;20091;-75
2023/09/25 05:30:56;;;;;;;4.85;4.07;;;12.60;99.90;;;;;;5046610;28;20132;-74
2023/09/25 05:33:22;;;;;;;5.03;4.13;;;12.60;99.90;;;;;;5053385;28;20408;-74
2023/09/25 05:35:48;;;;;;;4.75;4.20;;;12.60;99.90;;;;;;5055168;28;20041;-74
2023/09/25 05:38:14;;;;;;;5.53;4.30;;;12.60;99.90;;;;;;5047266;28;20041;-74
2023/09/25 05:40:40;;;;;;;5.70;3.88;;;12.60;99.90;;;;;;5044416;28;20056;-74
2023/09/25 05:43:06;;;;;;;6.72;3.85;;;12.60;99.90;;;;;;5063789;28;20055;-74
2023/09/25 05:45:32;;;;;;;5.88;4.05;;;12.60;99.90;;;;;;5064657;28;20028;-71
2023/09/25 05:47:58;;;;;;;6.68;4.03;;;12.60;99.90;;;;;;5067268;28;20056;-75
2023/09/25 05:50:26;;;;;;;4.82;3.92;;;12.60;99.90;;;;;;5056895;28;20842;-75
2023/09/25 05:52:52;;;;;;;4.72;3.65;;;12.50;99.90;;;;;;5048033;28;20045;-75
2023/09/25 05:55:17;;;;;;;5.68;4.00;;;12.60;99.90;;;;;;5044860;28;20377;-75
2023/09/25 05:57:43;;;;;;;8.00;4.28;;;12.60;99.90;;;;;;5058679;28;20054;-75
2023/09/25 06:00:11;;;;;;;5.53;4.18;;;12.60;99.90;;;;;;5045258;28;20136;-73
2023/09/25 06:02:38;;;;;;;4.78;3.53;;;12.60;99.90;;;;;;5046780;28;20049;-75
2023/09/25 06:05:05;;;;;;;5.07;4.15;;;12.60;99.90;;;;;;5044836;28;20067;-74
2023/09/25 06:07:31;;;;;;;4.97;3.65;;;12.60;99.90;;;;;;5043196;28;20044;-74
2023/09/25 06:09:57;;;;;;;4.10;3.45;;;12.70;99.90;;;;;;5066176;28;20805;-75
2023/09/25 06:12:23;;;;;;;4.60;3.65;;;12.70;99.90;;;;;;5061012;28;20040;-75
2023/09/25 06:14:49;;;;;;;5.68;3.65;;;12.70;99.90;;;;;;5046138;28;20127;-75
2023/09/25 06:17:15;;;;;;;6.00;3.80;;;12.80;99.90;;;;;;5068761;28;20044;-74
2023/09/25 06:19:41;;;;;;;5.57;3.70;;;12.80;99.90;;;;;;5047061;28;20045;-74
2023/09/25 06:22:07;;;;;;;4.20;3.63;;;12.80;99.90;;;;;;5048085;28;20052;-75
2023/09/25 06:24:33;;;;;;;4.22;3.70;;;12.80;99.90;;;;;;5043935;28;20571;-75
2023/09/25 06:26:59;;;;;;;4.07;3.67;;;12.90;99.90;;;;;;5043795;28;20135;-75
2023/09/25 06:29:25;;;;;;;7.75;4.18;;;12.90;99.90;;;;;;5068640;28;20063;-75
2023/09/25 06:31:51;;;;;;;6.25;3.70;;;12.90;99.90;;;;;;5066092;28;20037;-75
2023/09/25 06:34:17;;;;;;;5.15;3.67;;;12.90;99.90;;;;;;5044861;28;20512;-75
2023/09/25 06:36:43;;;;;;;5.30;3.33;;;13.00;99.90;;;;;;5054089;28;20033;-75
2023/09/25 06:39:09;;;;;;;4.55;3.50;;;13.00;99.90;;;;;;5048192;28;20048;-74
2023/09/25 06:41:41;;;;;;;4.57;3.63;;;13.00;99.90;;;;;;5046808;28;20076;-78
2023/09/25 06:44:07;;;;;;;4.93;3.53;;;13.10;99.90;;;;;;5041507;28;20085;-75
2023/09/25 06:46:33;;;;;;;5.93;3.30;;;13.10;99.90;;;;;;5044311;28;20529;-74
2023/09/25 06:49:00;;;;;;;5.45;3.55;;;13.10;99.90;;;;;;5046671;28;20049;-76
2023/09/25 06:51:28;;;;;;;7.15;3.78;;;13.20;99.90;;;;;;5046816;28;20067;-74
2023/09/25 06:53:54;;;;;;;5.82;3.63;;;13.30;99.90;;;;;;5063529;28;20049;-72
2023/09/25 06:56:20;;;;;;;6.03;3.80;;;13.40;99.90;;;;;;5052388;28;20079;-73
2023/09/25 06:58:45;;;;;;;4.32;3.78;;;13.40;99.90;;;;;;5042992;28;20052;-75
2023/09/25 07:01:12;;;;;;;4.65;3.53;;;13.40;99.90;;;;;;5054985;28;20063;-74
2023/09/25 07:03:37;;;;;;;6.20;3.90;;;13.50;99.90;;;;;;5042750;28;20070;-74
2023/09/25 07:06:03;;;;;;;5.18;3.55;;;13.60;99.90;;;;;;5062721;28;20049;-74
2023/09/25 07:08:30;;;;;;;4.53;3.60;;;13.60;99.90;;;;;;5033666;28;20049;-74
2023/09/25 07:10:58;;;;;;;5.00;3.35;;;13.70;99.90;;;;;;5052934;28;20120;-74
2023/09/25 07:13:23;;;;;;;;;;;13.70;99.90;;;;;;5049448;28;20495;-74
2023/09/25 07:15:49;;;;;;;5.07;3.80;;;13.80;99.90;;;;;;5039478;28;19929;-74
2023/09/25 07:18:16;;;;;;;6.45;3.80;;;13.80;99.90;;;;;;5063200;28;20511;-75
2023/09/25 07:20:45;;;;;;;3.95;3.30;;;13.80;99.90;;;;;;5051942;28;20033;-74
2023/09/25 07:23:11;;;;;;;4.88;3.90;;;13.90;99.90;;;;;;5041633;28;20072;-74
2023/09/25 07:25:37;;;;;;;5.43;3.40;;;13.90;99.90;;;;;;5033238;28;20053;-75
2023/09/25 07:28:03;;;;;;;5.75;3.70;;;14.00;99.90;;;;;;5041300;28;20045;-73
2023/09/25 07:30:29;;;;;;;4.10;3.33;;;14.00;99.90;;;;;;5045682;28;20048;-73
2023/09/25 07:32:55;;;;;;;7.28;3.72;;;14.10;99.90;;;;;;5046983;28;20480;-73
2023/09/25 07:35:21;;;;;;;5.55;3.97;;;14.20;99.90;;;;;;5035044;28;20045;-73
2023/09/25 07:37:47;;;;;;;7.15;3.72;;;14.30;99.90;;;;;;5031809;28;20049;-71
2023/09/25 07:40:14;;;;;;;8.85;3.30;;;14.30;99.90;;;;;;5037463;28;20553;-71
2023/09/25 07:42:42;;;;;;;5.03;3.50;;;14.40;99.90;;;;;;5060788;28;20036;-71
2023/09/25 07:45:22;;;;;;;5.55;3.50;;;14.50;99.90;;;;;;5032908;28;20057;-71
2023/09/25 07:47:48;;;;;;;4.50;3.38;;;14.60;99.90;;;;;;5038012;28;20083;-71
2023/09/25 07:50:14;;;;;;;6.00;3.53;;;14.70;99.90;;;;;;5031601;28;20053;-71
2023/09/25 07:52:41;;;;;;;5.10;3.40;;;14.80;99.90;;;;;;5041360;28;20044;-71
2023/09/25 07:55:10;;;;;;;5.43;3.22;;;14.90;99.90;;;;;;5042653;28;20075;-71
2023/09/25 07:57:39;;;;;;;6.40;3.20;;;15.00;99.90;;;;;;5040279;28;20052;-72
2023/09/25 08:00:44;;;;;;;4.68;3.03;;;15.10;99.90;;;;;;5032540;28;20052;-72
2023/09/25 08:03:01;;;;;;;4.53;3.03;;;15.20;99.90;;;;;;5025013;28;20073;-71
2023/09/25 08:05:28;;;;;;;5.45;3.15;;;15.20;99.90;;;;;;5035182;28;20045;-73
2023/09/25 08:07:54;;;;;;;4.00;2.90;;;15.30;99.90;;;;;;5032840;28;20107;-72
2023/09/25 08:10:19;;;;;;;6.25;3.17;;;15.40;99.90;;;;;;5036356;28;20132;-72
2023/09/25 08:12:46;;;;;;;4.82;3.55;;;15.40;99.90;;;;;;5029741;28;20048;-72
2023/09/25 08:15:12;;;;;;;5.80;3.13;;;15.50;99.90;;;;;;5032887;28;20071;-76
2023/09/25 08:17:42;;;;;;;4.38;2.72;;;15.60;99.90;;;;;;5037298;28;20075;-74
2023/09/25 08:20:14;;;;;;;6.88;2.80;;;15.60;99.90;;;;;;5043534;28;20392;-73
2023/09/25 08:22:43;;;;;;;4.38;2.53;;;15.70;99.90;;;;;;5035238;28;20042;-72
2023/09/25 08:25:09;;;;;;;4.72;2.78;;;15.70;99.90;;;;;;5030481;28;20487;-73
2023/09/25 08:27:36;;;;;;;6.95;4.90;;;15.80;99.90;;;;;;5045871;28;20116;-73
2023/09/25 08:30:04;;;;;;;5.55;3.60;;;15.80;99.90;;;;;;5034874;28;20132;-74
2023/09/25 08:32:31;;;;;;;5.88;3.28;;;15.90;99.90;;;;;;5029016;28;20041;-74
2023/09/25 08:34:57;;;;;;;5.47;3.03;;;16.00;99.90;;;;;;5035976;28;20499;-73
2023/09/25 08:37:24;;;;;;;4.38;2.92;;;16.00;99.90;;;;;;5031278;28;20400;-75
2023/09/25 08:39:53;;;;;;;5.80;2.70;;;16.10;99.90;;;;;;5040942;28;20087;-74
2023/09/25 08:42:24;;;;;;;4.53;2.70;;;16.10;99.90;;;;;;5028112;28;20126;-76
2023/09/25 08:44:51;;;;;;;5.03;2.63;;;16.20;99.90;;;;;;5040485;28;20053;-72
2023/09/25 08:47:22;;;;;;;5.07;2.78;;;16.20;99.90;;;;;;5033770;28;20037;-73
2023/09/25 08:49:51;;;;;;;4.80;2.85;;;16.30;99.90;;;;;;5039025;28;20049;-76
2023/09/25 08:52:18;;;;;;;8.55;3.10;;;16.30;99.90;;;;;;5034530;28;20123;-74
2023/09/25 08:54:44;;;;;;;8.17;2.80;;;16.50;99.90;;;;;;5032757;28;20037;-74
2023/09/25 08:57:12;;;;;;;5.85;2.58;;;16.60;99.90;;;;;;5035164;28;20037;-76
2023/09/25 08:59:39;;;;;;;4.28;2.53;;;16.70;99.90;;;;;;5037668;28;20040;-73
2023/09/25 09:02:08;;;;;;;4.63;2.90;;;16.80;99.90;;;;;;5042868;28;20507;-73
2023/09/25 09:04:35;;;;;;;3.55;2.67;;;16.90;99.90;;;;;;5048760;28;20045;-73
2023/09/25 09:07:01;;;;;;;5.07;2.92;;;17.00;99.90;;;;;;5040955;28;20450;-73
2023/09/25 09:09:27;;;;;;;3.20;2.60;;;17.00;99.90;;;;;;5059585;28;20136;-73
2023/09/25 09:11:53;;;;;;;4.72;2.60;;;17.00;99.90;;;;;;5053629;28;20132;-73
2023/09/25 09:14:35;;;;;;;4.53;2.75;;;17.00;99.90;;;;;;5038492;28;20037;-73
2023/09/25 09:17:04;;;;;;;5.25;2.67;;;17.00;99.90;;;;;;5045837;28;20044;-73
2023/09/25 09:19:37;;;;;;;5.05;2.70;;;17.10;99.90;;;;;;5036264;28;20045;-75
2023/09/25 09:22:07;;;;;;;5.70;2.67;;;17.10;99.90;;;;;;5042489;28;20604;-74
2023/09/25 09:24:41;;;;;;;7.95;2.60;;;17.10;99.90;;;;;;5066066;28;20097;-74
2023/09/25 09:27:07;;;;;;;3.92;2.60;;;17.20;99.90;;;;;;5059866;28;20119;-74
2023/09/25 09:29:38;;;;;;;3.92;2.38;;;17.30;99.90;;;;;;5047133;28;20076;-74
2023/09/25 09:32:04;;;;;;;5.25;2.38;;;17.40;99.90;;;;;;5038693;28;20040;-73
2023/09/25 09:34:30;;;;;;;3.97;2.13;;;17.40;99.90;;;;;;5067414;28;20037;-73
2023/09/25 09:36:56;;;;;;;4.45;2.17;;;17.50;99.90;;;;;;5060270;28;20044;-74
2023/09/25 09:39:25;;;;;;;4.32;2.30;;;17.50;99.90;;;;;;5040826;28;20126;-74
2023/09/25 09:41:56;;;;;;;5.13;2.20;;;17.60;99.90;;;;;;5044911;28;20446;-74
2023/09/25 09:44:22;;;;;;;5.43;2.30;;;17.60;99.90;;;;;;5049942;28;20537;-74
2023/09/25 09:46:51;;;;;;;3.55;2.13;;;17.70;99.90;;;;;;5040467;28;20036;-74
2023/09/25 09:49:21;;;;;;;4.72;2.47;;;17.80;99.90;;;;;;5043545;28;20149;-73
2023/09/25 09:51:50;;;;;;;4.00;2.20;;;17.90;99.90;;;;;;5046065;28;20052;-73
2023/09/25 09:54:18;;;;;;;4.25;2.17;;;17.90;99.90;;;;;;5050932;28;20669;-74
2023/09/25 09:56:47;;;;;;;4.68;2.45;;;18.00;99.90;;;;;;5039034;28;20474;-73
2023/09/25 09:59:14;;;;;;;3.47;2.00;;;18.00;99.90;;;;;;5038022;28;20041;-73
2023/09/25 10:01:42;;;;;;;4.05;1.85;;;18.00;99.90;;;;;;5043904;28;20401;-74
2023/09/25 10:04:09;;;;;;;5.53;2.30;;;18.10;99.90;;;;;;5037896;28;20050;-73
2023/09/25 10:06:50;;;;;;;4.75;2.60;;;18.10;99.90;;;;;;5034322;28;20046;-74
2023/09/25 10:09:16;;;;;;;3.95;2.13;;;18.10;99.90;;;;;;5036675;28;20049;-73
2023/09/25 10:11:48;;;;;;;3.67;2.15;;;18.20;99.90;;;;;;5037611;28;20037;-74
2023/09/25 10:14:22;;;;;;;5.45;2.40;;;18.30;99.90;;;;;;5031206;28;20457;-76
2023/09/25 10:17:01;;;;;;;5.18;2.30;;;18.20;99.90;;;;;;5031024;28;20855;-74
2023/09/25 10:19:41;;;;;;;3.40;2.05;;;18.30;99.90;;;;;;5037013;28;20049;-74
2023/09/25 10:22:11;;;;;;;4.88;2.60;;;18.30;99.90;;;;;;5030756;28;20081;-74
2023/09/25 10:24:38;;;;;;;4.97;2.22;;;18.30;99.90;;;;;;5033268;28;20504;-74
2023/09/25 10:27:04;;;;;;;5.00;2.40;;;18.30;99.90;;;;;;5038686;28;20034;-74
2023/09/25 10:29:30;;;;;;;5.20;2.50;;;18.40;99.90;;;;;;5042089;28;20044;-73
2023/09/25 10:31:57;;;;;;;4.82;2.22;;;18.50;99.90;;;;;;5035483;28;20103;-74
2023/09/25 10:34:25;;;;;;;4.13;2.15;;;18.50;99.90;;;;;;5030945;28;20661;-79
2023/09/25 10:37:00;;;;;;;4.45;2.22;;;18.60;99.90;;;;;;5041447;28;20052;-72
2023/09/25 10:39:29;;;;;;;3.63;2.30;;;18.60;99.90;;;;;;5047789;28;20040;-74
2023/09/25 10:42:06;;;;;;;5.97;1.95;;;18.60;99.90;;;;;;5045434;28;20041;-73
2023/09/25 10:44:36;;;;;;;7.18;2.22;;;18.60;99.90;;;;;;5044097;28;20186;-75
2023/09/25 10:47:06;;;;;;;3.25;1.90;;;18.70;99.90;;;;;;5037928;28;20045;-73
2023/09/25 10:49:40;;;;;;;3.70;2.30;;;18.80;99.90;;;;;;5032588;28;20107;-74
2023/09/25 10:52:05;;;;;;;5.22;2.50;;;18.80;99.90;;;;;;5039342;28;20078;-73
2023/09/25 10:54:33;;;;;;;5.03;2.20;;;18.90;99.90;;;;;;5044373;28;20041;-78
2023/09/25 10:56:59;;;;;;;5.00;2.15;;;19.00;99.90;;;;;;5038633;28;20075;-74
2023/09/25 10:59:26;;;;;;;4.43;2.38;;;19.10;99.90;;;;;;5033191;28;20045;-75
2023/09/25 11:01:52;;;;;;;3.28;2.20;;;19.10;99.90;;;;;;5049212;28;20155;-74
2023/09/25 11:04:18;;;;;;;2.92;2.15;;;19.20;99.90;;;;;;5044669;28;20119;-77
2023/09/25 11:06:45;;;;;;;4.30;2.50;;;19.20;99.90;;;;;;5040484;28;20040;-76
2023/09/25 11:09:17;;;;;;;5.07;2.40;;;19.20;99.90;;;;;;5056651;28;20056;-76
2023/09/25 11:11:46;;;;;;;5.28;2.50;;;19.30;99.90;;;;;;5056087;28;20041;-76
2023/09/25 11:14:12;;;;;;;4.75;2.40;;;19.30;99.90;;;;;;5030224;28;20048;-76
2023/09/25 11:16:39;;;;;;;3.60;2.00;;;19.40;99.90;;;;;;5052099;28;20090;-76
2023/09/25 11:19:11;;;;;;;3.55;2.03;;;19.40;99.90;;;;;;5048440;28;20044;-75
2023/09/25 11:21:38;;;;;;;6.07;2.60;;;19.40;99.90;;;;;;5044934;28;20176;-74
2023/09/25 11:24:08;;;;;;;5.22;2.42;;;19.50;99.90;;;;;;5041263;28;20077;-76
2023/09/25 11:26:38;;;;;;;4.45;2.45;;;19.50;99.90;;;;;;5054434;28;20048;-75
2023/09/25 11:29:08;;;;;;;5.65;2.25;;;19.50;99.90;;;;;;5046882;28;20056;-77
2023/09/25 11:31:34;;;;;;;4.38;2.03;;;19.50;99.90;;;;;;5043800;28;20494;-79
2023/09/25 11:34:00;;;;;;;5.47;2.10;;;19.60;99.90;;;;;;5060144;28;20041;-74
2023/09/25 11:36:27;;;;;;;5.05;2.30;;;19.60;99.90;;;;;;5037056;28;20037;-76
2023/09/25 11:38:52;;;;;;;4.40;2.28;;;19.60;99.90;;;;;;5040284;28;20492;-75
2023/09/25 11:41:18;;;;;;;4.68;2.20;;;19.70;99.90;;;;;;5042076;28;20055;-73
2023/09/25 11:43:44;;;;;;;5.72;2.53;;;19.70;99.90;;;;;;5032989;28;20072;-76
2023/09/25 11:46:09;;;;;;;6.72;2.13;;;19.70;99.90;;;;;;5045589;28;20447;-77
2023/09/25 11:48:38;;;;;;;4.10;1.92;;;19.80;99.90;;;;;;5038141;28;20047;-77
2023/09/25 11:51:03;;;;;;;4.72;2.60;;;19.80;99.90;;;;;;5058309;28;20547;-77
2023/09/25 11:53:29;;;;;;;4.50;2.30;;;19.80;99.90;;;;;;5058617;28;20123;-78
2023/09/25 11:55:55;;;;;;;4.22;2.10;;;19.90;99.90;;;;;;5054858;28;20049;-75
2023/09/25 11:58:21;;;;;;;4.68;2.13;;;20.00;99.90;;;;;;5048884;28;20041;-78
2023/09/25 12:00:46;;;;;;;4.68;2.28;;;20.00;99.90;;;;;;5060441;28;20049;-79
2023/09/25 12:03:13;;;;;;;3.95;2.53;;;20.10;99.90;;;;;;5038888;28;20075;-79
2023/09/25 12:05:38;;;;;;;4.65;1.90;;;20.10;99.90;;;;;;5053707;28;20040;-78
2023/09/25 12:08:05;;;;;;;3.50;1.90;;;20.10;99.90;;;;;;5059107;28;20033;-77
2023/09/25 12:10:37;;;;;;;;;;;20.10;99.90;;;;;;5049384;28;20103;-78
2023/09/25 12:13:04;;;;;;;3.58;2.20;;;20.20;99.90;;;;;;5035954;28;19986;-79
2023/09/25 12:15:30;;;;;;;4.60;2.00;;;20.30;99.90;;;;;;5055332;28;20074;-76
2023/09/25 12:17:56;;;;;;;3.30;1.98;;;20.30;99.90;;;;;;5059873;28;20574;-79
2023/09/25 12:20:23;;;;;;;4.32;2.00;;;20.40;99.90;;;;;;5060898;28;20064;-74
2023/09/25 12:22:52;;;;;;;4.10;1.95;;;20.40;99.90;;;;;;5053909;28;20477;-76
2023/09/25 12:25:19;;;;;;;5.68;2.47;;;20.50;99.90;;;;;;5057156;28;20048;-75
2023/09/25 12:27:45;;;;;;;4.15;1.98;;;20.60;99.90;;;;;;5062740;28;20028;-75
2023/09/25 12:30:14;;;;;;;4.18;1.98;;;20.60;99.90;;;;;;5036025;28;20463;-78
2023/09/25 12:32:40;;;;;;;4.50;2.00;;;20.70;99.90;;;;;;5042500;28;20119;-78
2023/09/25 12:35:07;;;;;;;4.20;1.80;;;20.70;99.90;;;;;;5042738;28;20056;-75
2023/09/25 12:37:33;;;;;;;3.13;1.70;;;20.70;99.90;;;;;;5040069;28;20041;-74
2023/09/25 12:39:59;;;;;;;3.53;1.65;;;20.80;99.90;;;;;;5039262;28;20072;-75
2023/09/25 12:42:25;;;;;;;4.07;1.80;;;20.80;99.90;;;;;;5052946;28;20139;-74
2023/09/25 12:44:50;;;;;;;4.75;2.50;;;20.80;99.90;;;;;;5043611;28;20584;-75
2023/09/25 12:47:18;;;;;;;4.47;1.98;;;20.90;99.90;;;;;;5040517;28;20049;-74